METAR Data
IDs: Format: Raw Decoded Include TAF

Data at: 1745 UTC 25 Mar 2019

KLNC 251735Z AUTO 35010KT 10SM CLR 20/09 A3022 RMK AO2 T01970092
KLNC 251715Z AUTO 36009KT 10SM CLR 20/10 A3022 RMK AO2 T01950100
KLNC 251655Z AUTO 01007KT 10SM CLR 19/10 A3022 RMK AO2 T01900098
KLNC 251635Z AUTO 36011G15KT 10SM CLR 19/10 A3022 RMK AO2 T01880097
KLNC 251615Z AUTO 36008KT 10SM CLR 19/10 A3022 RMK AO2 T01850098
KLNC 251555Z AUTO 36010G15KT 10SM CLR 18/09 A3021 RMK AO2 T01770093
KLNC 251535Z AUTO 02009G15KT 10SM CLR 17/09 A3021 RMK AO2 T01700091
KLNC 251515Z AUTO 36010KT 10SM CLR 17/10 A3020 RMK AO2 T01650099
KLNC 251455Z AUTO 36008KT 10SM CLR 16/09 A3018 RMK AO2 T01590094
KLNC 251435Z AUTO 01006KT 10SM CLR 16/10 A3017 RMK AO2 T01550098
KLNC 251415Z AUTO 36008KT 10SM CLR 15/10 A3017 RMK AO2 T01480097
KLNC 251355Z AUTO 01005KT 10SM CLR 14/10 A3015 RMK AO2 T01430098
KLNC 251335Z AUTO 36004KT 10SM SCT070 14/10 A3015 RMK AO2 T01350100
KLNC 251315Z AUTO 01005KT 10SM BKN070 12/10 A3015 RMK AO2 T01240096
KLNC 251255Z AUTO 01003KT 10SM SCT070 12/10 A3014 RMK AO2 T01230095
KLNC 251235Z AUTO 36003KT 10SM SCT060 BKN080 13/10 A3014 RMK AO2 LTG DSNT E T01300096
KLNC 251215Z AUTO 36005KT 10SM BKN060 BKN080 14/10 A3013 RMK AO2 T01350100
KLNC 251155Z AUTO 36006KT 10SM BKN060 BKN080 14/10 A3011 RMK AO2 60006 70006 T01380103 10202 20138
KLNC 251135Z AUTO 01005KT 10SM BKN050 OVC070 15/10 A3011 RMK AO2 T01460104
KLNC 251115Z AUTO 01007KT 10SM BKN050 OVC070 15/11 A3010 RMK AO2 T01480108
KLNC 251055Z AUTO 01008KT 10SM BKN050 OVC065 15/11 A3010 RMK AO2 T01510111
KLNC 251035Z AUTO 36010G14KT 10SM BKN050 OVC065 15/12 A3008 RMK AO2 T01530119
KLNC 251015Z AUTO 36005KT 10SM OVC050 16/12 A3007 RMK AO2 T01550124
KLNC 250955Z AUTO 01005KT 10SM BKN050 16/13 A3006 RMK AO2 T01560128
KLNC 250935Z AUTO 02003KT 10SM BKN048 BKN050 BKN065 16/13 A3005 RMK AO2 T01600132
KLNC 250915Z AUTO 02004KT 10SM OVC047 17/14 A3005 RMK AO2 LTG DSNT E T01650135
KLNC 250855Z AUTO 03004KT 10SM BKN047 OVC070 17/14 A3004 RMK AO2 60006 T01670139
KLNC 250835Z AUTO 04006KT 10SM OVC045 17/14 A3004 RMK AO2 T01700142
KLNC 250815Z AUTO 03006KT 10SM OVC045 17/15 A3005 RMK AO2 LTG DSNT SE T01720152
KLNC 250755Z AUTO 02004KT 10SM VCTS OVC045 17/16 A3005 RMK AO2 LTG DSNT E AND SE T01720158
KLNC 250735Z AUTO 34005KT 10SM OVC043 17/16 A3005 RMK AO2 LTG DSNT E AND SE T01730159
KLNC 250715Z AUTO 31007KT 10SM OVC041 17/16 A3004 RMK AO2 LTG DSNT SE T01730159
KLNC 250655Z AUTO 30007KT 10SM SCT034 BKN044 BKN080 17/16 A3003 RMK AO2 LTG DSNT E THRU S P0006 T01730157
KLNC 250635Z AUTO 32004KT 10SM -VCTSRA BKN037 BKN047 BKN080 18/16 A3002 RMK AO2 LTG DSNT ALQS P0006 T01800160
KLNC 250615Z AUTO 34014G25KT 10SM /VCTSRA SCT035 BKN041 OVC048 20/16 A3002 RMK AO2 LTG DSNT W THRU NE P0001 T01980155
KLNC 250555Z AUTO 26004KT 10SM TS SCT043 BKN050 19/16 A3000 RMK AO2 LTG DSNT W T01910160 10238 20191 402560160
KLNC 250535Z AUTO 27003KT 10SM CLR 20/16 A3000 RMK AO2 LTG DSNT NW T01970160
KLNC 250515Z AUTO 26003KT 10SM CLR 20/16 A3001 RMK AO2 LTG DSNT NE T02010160
KLNC 250455Z AUTO 26003KT 10SM CLR 20/16 A3001 RMK AO2 LTG DSNT N AND NE T02040160
KLNC 250435Z AUTO 28003KT 10SM CLR 20/16 A3002 RMK AO2 LTG DSNT NW THRU E T02030160
KLNC 250415Z AUTO 28006KT 10SM CLR 21/16 A3001 RMK AO2 LTG DSNT N T02080159
KLNC 250355Z AUTO 21003KT 10SM CLR 21/16 A3000 RMK AO2 LTG DSNT N AND NW T02100160
KLNC 250335Z AUTO 20003KT 10SM CLR 21/16 A3000 RMK AO2 LTG DSNT NE T02110160
KLNC 250315Z AUTO 18005KT 7SM CLR 21/16 A2999 RMK AO2 LTG DSNT N AND NW T02110160
KLNC 250255Z AUTO 19006KT 10SM CLR 21/16 A2999 RMK AO2 LTG DSNT N T02110161
KLNC 250235Z AUTO 18004KT 10SM CLR 21/16 A2998 RMK AO2 T02070160
KLNC 250215Z AUTO 18003KT 10SM CLR 21/16 A2997 RMK AO2 LTG DSNT NE AND W T02110161
KLNC 250155Z AUTO 18003KT 10SM CLR 21/16 A2997 RMK AO2 T02140160
KLNC 250135Z AUTO 19005KT 10SM CLR 22/16 A2997 RMK AO2 T02180160
KLNC 250115Z AUTO 19007KT 10SM CLR 22/16 A2996 RMK AO2 LTG DSNT N T02220160
KLNC 250055Z AUTO 18007KT 10SM CLR 23/16 A2996 RMK AO2 T02250160
KLNC 250035Z AUTO 18010KT 10SM CLR 23/16 A2996 RMK AO2 LTG DSNT N T02300160
KLNC 250015Z AUTO 18012G17KT 10SM CLR 23/16 A2995 RMK AO2 LTG DSNT N T02340161
KLNC 242355Z AUTO 18013G18KT 10SM CLR 24/16 A2995 RMK AO2 LTG DSNT NW THRU NE T02390161 10256 20234
KLNC 242335Z AUTO 18014G19KT 10SM CLR 24/16 A2995 RMK AO2 LTG DSNT N T02400163
KLNC 242315Z AUTO 18011KT 10SM CLR 24/17 A2996 RMK AO2 LTG DSNT N T02440167
KLNC 242255Z AUTO 18013G20KT 10SM CLR 25/17 A2996 RMK AO2 LTG DSNT N T02470168
KLNC 242235Z AUTO 17009G19KT 10SM CLR 25/17 A2997 RMK AO2 T02450170
KLNC 242215Z AUTO 17014G19KT 10SM CLR 25/17 A2998 RMK AO2 T02490171
KLNC 242155Z AUTO 18012G17KT 10SM CLR 25/17 A2998 RMK AO2 T02500173
KLNC 242135Z AUTO 17013G18KT 10SM SCT038 25/18 A2999 RMK AO2 T02520175
KLNC 242115Z AUTO 17013G17KT 10SM SCT039 25/17 A3000 RMK AO2 T02510172
KLNC 242055Z AUTO 18011G16KT 10SM SCT039 SCT047 26/17 A3000 RMK AO2 T02550174
KLNC 242035Z AUTO 18010G17KT 10SM SCT039 BKN045 25/17 A3000 RMK AO2 T02450171
KLNC 242015Z AUTO 20010G18KT 10SM SCT039 BKN045 25/17 A3000 RMK AO2 T02480168
KLNC 241955Z AUTO 19010G15KT 10SM BKN039 25/17 A3001 RMK AO2 T02460168
KLNC 241935Z AUTO 18012G15KT 10SM OVC039 25/17 A3001 RMK AO2 T02490173
KLNC 241915Z AUTO 19010G14KT 10SM BKN038 24/17 A3002 RMK AO2 T02420165
KLNC 241855Z AUTO 20011G14KT 10SM BKN033 BKN041 25/17 A3003 RMK AO2 T02460171
KLNC 241835Z AUTO 19010KT 10SM OVC035 24/17 A3004 RMK AO2 T02390168
KLNC 241815Z AUTO 21011KT 10SM BKN031 24/17 A3005 RMK AO2 T02390168
KLNC 241755Z AUTO 21011G16KT 10SM BKN031 24/16 A3005 RMK AO2 T02350163 10238 20165
KLNC 241735Z AUTO 20011KT 10SM OVC029 23/17 A3005 RMK AO2 T02270167
KLNC 241715Z AUTO 21013G16KT 10SM OVC029 23/16 A3006 RMK AO2 T02270164
KLNC 241655Z AUTO 19009G16KT 10SM BKN029 23/17 A3006 RMK AO2 T02300171
KLNC 241635Z AUTO 19010KT 10SM BKN025 22/17 A3007 RMK AO2 T02220169
KLNC 241615Z AUTO 21012G17KT 10SM SCT023 22/17 A3007 RMK AO2 T02200167
KLNC 241555Z AUTO 20009G19KT 10SM SCT018 21/17 A3007 RMK AO2 T02140169
KLNC 241535Z AUTO 21013KT 10SM SCT014 21/17 A3007 RMK AO2 T02060167
KLNC 241515Z AUTO 21011G17KT 10SM BKN014 20/17 A3007 RMK AO2 T02010166
KLNC 241455Z AUTO 20008KT 10SM OVC010 19/17 A3007 RMK AO2 T01910165
KLNC 241435Z AUTO 19010KT 10SM OVC010 18/16 A3007 RMK AO2 T01810160
KLNC 241415Z AUTO 20008KT 10SM OVC010 18/16 A3007 RMK AO2 T01790159
KLNC 241355Z AUTO 19010KT 10SM OVC013 18/16 A3007 RMK AO2 T01760158
KLNC 241335Z AUTO 18008KT 10SM OVC012 17/16 A3007 RMK AO2 T01730156
KLNC 241315Z AUTO 19007KT 10SM OVC012 17/16 A3006 RMK AO2 T01710155
KLNC 241255Z AUTO 19007KT 10SM OVC012 17/15 A3006 RMK AO2 T01700154
KLNC 241235Z AUTO 17007KT 10SM OVC012 17/15 A3005 RMK AO2 T01660153
KLNC 241215Z AUTO 17006KT 10SM OVC012 17/15 A3005 RMK AO2 T01660152
KLNC 241155Z AUTO 18006KT 10SM SCT012 17/15 A3005 RMK AO2 T01650150 10179 20160
KLNC 241135Z AUTO 18008KT 10SM CLR 17/15 A3004 RMK AO2 T01670150
KLNC 241115Z AUTO 18009KT 10SM BKN025 17/15 A3004 RMK AO2 T01680150
KLNC 241055Z AUTO 19007KT 10SM BKN017 OVC025 17/15 A3004 RMK AO2 T01690151
KLNC 241035Z AUTO 18005KT 10SM BKN017 16/15 A3003 RMK AO2 T01640149
KLNC 241015Z AUTO 17005KT 10SM BKN017 16/15 A3003 RMK AO2 T01600145
KLNC 240955Z AUTO 17005KT 10SM BKN015 16/15 A3004 RMK AO2 T01620147
KLNC 240935Z AUTO 17005KT 10SM SCT035 16/15 A3004 RMK AO2 T01610145
KLNC 240915Z AUTO 17005KT 10SM SCT035 17/15 A3004 RMK AO2 T01650146
KLNC 240855Z AUTO 19007KT 10SM CLR 17/15 A3004 RMK AO2 T01660146
KLNC 240835Z AUTO 19009KT 10SM CLR 17/15 A3004 RMK AO2 T01690146
KLNC 240815Z AUTO 19008KT 10SM SCT036 17/15 A3004 RMK AO2 T01700146
KLNC 240755Z AUTO 18010KT 10SM BKN036 17/15 A3004 RMK AO2 T01730146
KLNC 240735Z AUTO 19009KT 10SM OVC036 18/15 A3005 RMK AO2 T01750146
KLNC 240715Z AUTO 18011G16KT 10SM OVC034 18/15 A3005 RMK AO2 T01750145
KLNC 240655Z AUTO 18010G15KT 10SM SCT036 18/15 A3005 RMK AO2 T01750145
KLNC 240635Z AUTO 18011G15KT 10SM CLR 18/14 A3005 RMK AO2 T01750143
KLNC 240615Z AUTO 18011G14KT 10SM SCT038 18/14 A3004 RMK AO2 LTG DSNT NE T01760142
KLNC 240555Z AUTO 18010G17KT 10SM SCT038 18/14 A3004 RMK AO2 T01780141 10210 20178 402110139